createdAt,value
2022-09-05T00:00:34.402Z,4.15
2022-09-05T00:01:49.612Z,4.00
2022-09-05T00:02:50.126Z,3.89
2022-09-05T00:04:35.329Z,4.03
2022-09-05T00:05:38.584Z,4.30
2022-09-05T00:06:49.732Z,3.79
2022-09-05T00:08:01.213Z,4.12
2022-09-05T00:09:13.059Z,3.88
2022-09-05T00:10:18.611Z,4.23
2022-09-05T00:11:43.850Z,3.80
2022-09-05T00:12:33.829Z,4.21
2022-09-05T00:13:38.645Z,4.84
2022-09-05T00:14:35.248Z,4.23
2022-09-05T00:16:30.219Z,4.17
2022-09-05T00:18:18.957Z,4.16
2022-09-05T00:19:46.542Z,4.11
2022-09-05T00:24:27.147Z,4.29
2022-09-05T00:24:28.843Z,4.04
2022-09-05T00:24:37.780Z,4.12
2022-09-05T00:25:30.577Z,4.22
2022-09-05T00:26:17.136Z,4.18
2022-09-05T00:27:32.807Z,4.38
2022-09-05T00:28:39.624Z,4.20
2022-09-05T00:31:08.160Z,3.97
2022-09-05T00:31:54.489Z,3.98
2022-09-05T00:33:01.401Z,4.19
2022-09-05T00:34:06.759Z,4.15
2022-09-05T00:35:26.179Z,4.54
2022-09-05T00:36:21.891Z,4.13
2022-09-05T00:37:11.269Z,4.42
2022-09-05T00:38:20.433Z,4.15
2022-09-05T00:39:38.490Z,4.09
2022-09-05T00:40:50.157Z,3.97
2022-09-05T00:41:37.934Z,4.08
2022-09-05T00:42:25.025Z,4.00
2022-09-05T00:43:19.193Z,4.02
2022-09-05T00:44:07.055Z,4.06
2022-09-05T00:45:01.403Z,4.13
2022-09-05T00:45:58.536Z,4.40
2022-09-05T00:46:59.542Z,3.94
2022-09-05T00:47:58.270Z,4.03
2022-09-05T00:49:16.252Z,4.15
2022-09-05T00:50:19.227Z,4.51
2022-09-05T00:51:34.669Z,4.45
2022-09-05T00:52:31.050Z,4.03
2022-09-05T00:53:46.504Z,4.13
2022-09-05T00:54:53.025Z,4.23
2022-09-05T00:56:07.354Z,4.29
2022-09-05T00:57:18.004Z,4.20
2022-09-05T00:58:35.637Z,4.11
2022-09-05T00:59:40.624Z,4.52
2022-09-05T01:00:33.598Z,4.14
2022-09-05T01:01:45.858Z,4.43
2022-09-05T01:03:00.392Z,4.25
2022-09-05T01:04:09.421Z,4.26
2022-09-05T01:05:04.849Z,4.22
2022-09-05T01:06:31.028Z,4.05
2022-09-05T01:07:33.079Z,4.13
2022-09-05T01:08:45.934Z,4.07
2022-09-05T01:10:04.098Z,4.40
2022-09-05T01:11:17.383Z,4.13
2022-09-05T01:12:31.703Z,4.37
2022-09-05T01:13:36.969Z,3.82
2022-09-05T01:14:54.324Z,4.16
2022-09-05T01:16:05.475Z,4.44
2022-09-05T01:17:08.366Z,4.19
2022-09-05T01:18:00.335Z,4.19
2022-09-05T01:19:05.486Z,3.80
2022-09-05T01:20:20.151Z,3.95
2022-09-05T01:21:53.876Z,4.29
2022-09-05T01:23:08.964Z,4.11
2022-09-05T01:23:58.111Z,4.28
2022-09-05T01:25:15.284Z,4.50
2022-09-05T01:26:22.037Z,4.20
2022-09-05T01:28:08.384Z,4.52
2022-09-05T01:29:18.706Z,4.25
2022-09-05T01:30:14.353Z,4.15
2022-09-05T01:31:24.962Z,4.19
2022-09-05T01:32:22.372Z,4.01
2022-09-05T01:33:25.879Z,4.24
2022-09-05T01:34:41.569Z,4.29
2022-09-05T01:35:27.984Z,4.36
2022-09-05T01:36:34.253Z,4.10
2022-09-05T01:37:48.030Z,4.56
2022-09-05T01:40:04.437Z,4.07
2022-09-05T01:40:21.065Z,4.32
2022-09-05T01:41:21.684Z,4.29
2022-09-05T01:42:49.645Z,4.26
2022-09-05T01:43:58.839Z,4.69
2022-09-05T01:45:41.085Z,4.30
2022-09-05T01:46:43.278Z,4.24
2022-09-05T01:47:49.695Z,4.39
2022-09-05T01:49:16.132Z,4.59
2022-09-05T01:50:32.754Z,4.40
2022-09-05T01:51:39.789Z,4.39
2022-09-05T01:52:57.079Z,4.37
2022-09-05T01:54:21.489Z,4.08
2022-09-05T01:55:26.877Z,3.95
2022-09-05T01:56:41.867Z,4.33
2022-09-05T01:57:37.300Z,4.27
2022-09-05T01:58:55.073Z,4.45
2022-09-05T01:59:59.248Z,4.29
2022-09-05T02:01:25.357Z,4.27
2022-09-05T02:02:58.743Z,4.33
2022-09-05T02:04:13.900Z,4.30
2022-09-05T02:05:20.703Z,4.27
2022-09-05T02:06:38.938Z,4.40
2022-09-05T02:07:58.152Z,4.33
2022-09-05T02:09:18.956Z,4.68
2022-09-05T02:10:30.600Z,4.45
2022-09-05T02:11:36.096Z,4.78
2022-09-05T02:12:36.738Z,4.75
2022-09-05T02:13:35.517Z,4.30
2022-09-05T02:14:45.687Z,4.55
2022-09-05T02:15:59.208Z,4.53
2022-09-05T02:16:49.433Z,4.76
2022-09-05T02:17:50.784Z,4.60
2022-09-05T02:18:56.937Z,4.43
2022-09-05T02:19:51.079Z,4.51
2022-09-05T02:20:58.543Z,4.54
2022-09-05T02:22:10.954Z,4.61
2022-09-05T02:23:26.014Z,4.39
2022-09-05T02:24:36.616Z,4.79
2022-09-05T02:26:02.773Z,4.50
2022-09-05T02:28:03.781Z,4.32
2022-09-05T02:28:58.204Z,4.56
2022-09-05T02:30:06.200Z,4.35
2022-09-05T02:31:19.934Z,4.05
2022-09-05T02:32:30.524Z,4.05
2022-09-05T02:33:24.091Z,4.48
2022-09-05T02:34:25.388Z,4.28
2022-09-05T02:35:39.110Z,4.28
2022-09-05T02:36:45.934Z,4.30
2022-09-05T02:40:41.359Z,4.64
2022-09-05T02:42:30.491Z,4.23
2022-09-05T02:45:09.704Z,4.44
2022-09-05T02:45:15.182Z,4.29
2022-09-05T02:45:21.084Z,4.39
2022-09-05T02:45:21.827Z,4.11
2022-09-05T02:46:12.323Z,4.54
2022-09-05T02:47:11.319Z,4.84
2022-09-05T02:48:15.750Z,4.38
2022-09-05T02:50:28.247Z,4.63
2022-09-05T02:57:24.609Z,4.14
2022-09-05T02:57:26.978Z,4.35
2022-09-05T02:57:28.796Z,4.11
2022-09-05T02:57:38.163Z,4.33
2022-09-05T02:57:40.795Z,4.36
2022-09-05T02:58:05.967Z,4.74
2022-09-05T02:59:10.356Z,4.19
2022-09-05T03:00:17.215Z,4.18
2022-09-05T03:01:19.957Z,4.60
2022-09-05T03:02:25.461Z,4.22
2022-09-05T03:03:43.629Z,4.56
2022-09-05T03:04:52.177Z,4.40
2022-09-05T03:06:13.061Z,4.51
2022-09-05T03:07:37.522Z,4.04
2022-09-05T03:08:44.078Z,4.52
2022-09-05T03:10:00.164Z,3.97
2022-09-05T03:11:28.285Z,4.38
2022-09-05T03:12:32.535Z,4.21
2022-09-05T03:13:56.601Z,4.63
2022-09-05T03:15:22.863Z,4.91
2022-09-05T03:16:57.883Z,4.35
2022-09-05T03:18:31.188Z,4.54
2022-09-05T03:19:33.004Z,4.49
2022-09-05T03:20:55.447Z,4.49
2022-09-05T03:22:47.766Z,4.36
2022-09-05T03:23:43.086Z,4.44
2022-09-05T03:24:59.144Z,4.06
2022-09-05T03:26:17.877Z,4.19
2022-09-05T03:27:29.215Z,4.39
2022-09-05T03:28:40.020Z,4.46
2022-09-05T03:29:58.440Z,4.18
2022-09-05T03:31:24.788Z,4.63
2022-09-05T03:32:49.058Z,4.36
2022-09-05T03:33:42.449Z,4.45
2022-09-05T03:35:09.728Z,4.29
2022-09-05T03:36:09.292Z,4.67
2022-09-05T03:37:20.334Z,4.72
2022-09-05T03:38:39.422Z,4.45
2022-09-05T03:39:47.292Z,4.50
2022-09-05T03:40:58.687Z,4.70
2022-09-05T03:42:14.571Z,4.09
2022-09-05T03:43:39.259Z,4.01
2022-09-05T03:44:53.440Z,3.91
2022-09-05T03:45:45.728Z,4.24
2022-09-05T03:46:55.192Z,4.49
2022-09-05T03:48:27.952Z,4.49
2022-09-05T03:52:34.022Z,4.24
2022-09-05T03:57:06.779Z,4.37
2022-09-05T03:57:07.291Z,4.43
2022-09-05T03:57:14.288Z,4.41
2022-09-05T03:57:21.028Z,4.54
2022-09-05T03:57:42.130Z,4.44
2022-09-05T03:59:09.022Z,4.05
2022-09-05T04:00:20.861Z,3.97
2022-09-05T04:07:08.767Z,4.47
2022-09-05T04:08:08.103Z,4.19
2022-09-05T04:08:11.497Z,4.59
2022-09-05T04:08:17.181Z,4.08
2022-09-05T04:08:28.798Z,4.45
2022-09-05T04:08:56.963Z,4.18
2022-09-05T04:09:59.176Z,4.39
2022-09-05T04:11:00.170Z,4.07
2022-09-05T04:12:16.292Z,4.35
2022-09-05T04:13:29.151Z,4.14
2022-09-05T04:14:29.859Z,4.15
2022-09-05T04:15:21.772Z,4.38
2022-09-05T04:16:17.866Z,4.51
2022-09-05T04:17:19.237Z,4.29
2022-09-05T04:18:32.885Z,4.32
2022-09-05T04:19:27.967Z,4.00
2022-09-05T04:20:19.312Z,4.27
2022-09-05T04:21:27.617Z,4.06
2022-09-05T04:22:20.096Z,3.79
2022-09-05T04:23:29.938Z,4.16
2022-09-05T04:24:36.644Z,4.49
2022-09-05T04:26:15.868Z,4.25
2022-09-05T04:27:20.132Z,4.33
2022-09-05T04:28:55.715Z,4.25
2022-09-05T04:30:00.674Z,4.17
2022-09-05T04:31:33.000Z,4.30
2022-09-05T04:32:34.297Z,4.39
2022-09-05T04:33:37.597Z,4.60
2022-09-05T04:34:41.015Z,4.45
2022-09-05T04:35:33.134Z,4.18
2022-09-05T04:36:28.659Z,4.27
2022-09-05T04:37:58.642Z,4.14
2022-09-05T04:39:04.941Z,4.37
2022-09-05T04:39:51.531Z,4.48
2022-09-05T04:40:58.844Z,4.68
2022-09-05T04:41:56.341Z,4.08
2022-09-05T04:42:43.137Z,4.27
2022-09-05T04:43:47.197Z,4.10
2022-09-05T04:44:55.632Z,4.67
2022-09-05T04:45:53.579Z,4.19
2022-09-05T04:46:52.094Z,4.42
2022-09-05T04:47:50.586Z,4.19
2022-09-05T04:48:46.658Z,4.15
2022-09-05T04:49:40.468Z,3.91
2022-09-05T04:50:37.629Z,4.04
2022-09-05T04:52:00.405Z,4.35
2022-09-05T04:53:13.804Z,4.39
2022-09-05T04:54:30.224Z,4.34
2022-09-05T04:55:25.418Z,4.51
2022-09-05T04:56:25.003Z,4.20
2022-09-05T04:57:30.232Z,4.40
2022-09-05T04:59:29.335Z,4.42
2022-09-05T05:04:02.321Z,4.17
2022-09-05T05:06:00.410Z,4.16
2022-09-05T05:06:17.933Z,4.64
2022-09-05T05:06:17.933Z,4.55
2022-09-05T05:06:19.942Z,4.44
2022-09-05T05:06:29.170Z,4.41
2022-09-05T05:07:21.429Z,4.58
2022-09-05T05:08:38.738Z,5.06
2022-09-05T05:09:44.649Z,4.55
2022-09-05T05:15:41.950Z,4.73
2022-09-05T05:18:01.444Z,4.60
2022-09-05T05:18:04.092Z,4.78
2022-09-05T05:18:07.466Z,4.73
2022-09-05T05:18:10.726Z,4.51
2022-09-05T05:18:11.814Z,4.55
2022-09-05T05:18:57.565Z,4.56
2022-09-05T05:20:40.270Z,4.52
2022-09-05T05:21:17.218Z,4.49
2022-09-05T05:22:13.265Z,4.31
2022-09-05T05:23:08.432Z,4.46
2022-09-05T05:24:07.011Z,4.55
2022-09-05T05:24:57.709Z,4.76
2022-09-05T05:25:54.666Z,4.57
2022-09-05T05:27:07.951Z,5.07
2022-09-05T05:28:29.671Z,4.90
2022-09-05T05:29:20.418Z,4.71
2022-09-05T05:30:10.941Z,4.92
2022-09-05T05:31:17.393Z,4.39
2022-09-05T05:32:06.421Z,4.99
2022-09-05T05:32:56.074Z,4.85
2022-09-05T05:33:48.829Z,4.98
2022-09-05T05:34:46.182Z,4.71
2022-09-05T05:35:39.821Z,4.80
2022-09-05T05:36:45.802Z,4.54
2022-09-05T05:37:55.963Z,4.48
2022-09-05T05:39:00.955Z,4.64
2022-09-05T05:40:11.051Z,4.54
2022-09-05T05:41:32.290Z,5.01
2022-09-05T05:42:24.232Z,5.26
2022-09-05T05:43:20.096Z,4.51
2022-09-05T05:44:15.842Z,5.24
2022-09-05T05:45:03.392Z,4.60
2022-09-05T05:45:59.735Z,4.98
2022-09-05T05:47:00.470Z,5.33
2022-09-05T05:47:54.480Z,4.87
2022-09-05T05:48:44.180Z,4.75
2022-09-05T05:50:11.549Z,4.98
2022-09-05T05:51:17.652Z,4.70
2022-09-05T05:52:33.957Z,4.88
2022-09-05T05:53:51.771Z,5.01
2022-09-05T05:55:24.328Z,4.54
2022-09-05T05:56:37.442Z,5.20
2022-09-05T05:57:57.140Z,5.08
2022-09-05T05:58:58.619Z,5.01
2022-09-05T06:00:06.906Z,5.08
2022-09-05T06:01:38.274Z,5.31
2022-09-05T06:03:26.360Z,4.96
2022-09-05T06:04:34.486Z,4.83
2022-09-05T06:05:44.218Z,4.99
2022-09-05T06:06:54.009Z,4.91
2022-09-05T06:11:23.317Z,4.39
2022-09-05T06:14:49.045Z,5.01
2022-09-05T06:15:00.160Z,5.28
2022-09-05T06:15:06.007Z,5.34
2022-09-05T06:15:06.967Z,5.01
2022-09-05T06:15:52.531Z,5.24
2022-09-05T06:16:52.658Z,5.50
2022-09-05T06:18:16.532Z,5.03
2022-09-05T06:19:14.918Z,5.39
2022-09-05T06:22:04.715Z,5.62
2022-09-05T06:22:08.929Z,5.60
2022-09-05T06:23:36.668Z,5.51
2022-09-05T06:25:16.305Z,5.39
2022-09-05T06:26:21.289Z,5.69
2022-09-05T06:27:31.696Z,5.18
2022-09-05T06:28:42.469Z,5.58
2022-09-05T06:29:33.913Z,5.47
2022-09-05T06:30:30.047Z,5.60
2022-09-05T06:31:48.379Z,5.68
2022-09-05T06:33:09.010Z,5.60
2022-09-05T06:34:33.528Z,5.41
2022-09-05T06:35:32.569Z,5.52
2022-09-05T06:36:37.624Z,5.25
2022-09-05T06:37:39.801Z,5.29
2022-09-05T06:38:26.937Z,5.33
2022-09-05T06:39:17.855Z,5.38
2022-09-05T06:40:37.850Z,5.56
2022-09-05T06:41:59.309Z,5.59
2022-09-05T06:43:10.633Z,5.63
2022-09-05T06:44:32.786Z,5.26
2022-09-05T06:45:58.883Z,5.31
2022-09-05T06:47:21.941Z,5.46
2022-09-05T06:48:27.853Z,5.61
2022-09-05T06:50:24.093Z,5.32
2022-09-05T06:51:37.867Z,5.55
2022-09-05T06:53:20.153Z,5.20
2022-09-05T06:54:28.969Z,5.26
2022-09-05T06:55:40.730Z,5.47
2022-09-05T06:56:34.349Z,4.78
2022-09-05T06:57:45.735Z,5.03
2022-09-05T06:58:50.548Z,5.34
2022-09-05T07:00:19.570Z,5.32
2022-09-05T07:01:11.342Z,4.87
2022-09-05T07:02:15.793Z,5.28
2022-09-05T07:03:28.902Z,4.74
2022-09-05T07:05:14.746Z,5.01
2022-09-05T07:05:55.750Z,5.07
2022-09-05T07:07:22.984Z,5.12
2022-09-05T07:08:37.337Z,5.00
2022-09-05T07:09:47.386Z,4.87
2022-09-05T07:10:40.935Z,5.02
2022-09-05T07:11:58.787Z,4.89
2022-09-05T07:12:58.116Z,4.47
2022-09-05T07:14:05.900Z,4.58
2022-09-05T07:15:20.721Z,4.81
2022-09-05T07:16:37.727Z,4.96
2022-09-05T07:17:32.444Z,4.63
2022-09-05T07:18:47.628Z,4.24
2022-09-05T07:19:50.871Z,4.41
2022-09-05T07:21:16.691Z,4.49
2022-09-05T07:22:44.507Z,3.93
2022-09-05T07:24:00.703Z,3.96
2022-09-05T07:24:54.646Z,4.23
2022-09-05T07:25:50.020Z,3.94
2022-09-05T07:26:53.908Z,4.25
2022-09-05T07:28:29.162Z,4.41
2022-09-05T07:29:09.713Z,4.01
2022-09-05T07:30:01.682Z,4.04
2022-09-05T07:31:00.825Z,4.28
2022-09-05T07:31:53.386Z,4.30
2022-09-05T07:32:48.737Z,4.03
2022-09-05T07:33:39.916Z,4.13
2022-09-05T07:34:35.169Z,3.85
2022-09-05T07:35:31.227Z,4.33
2022-09-05T07:36:40.664Z,4.19
2022-09-05T07:37:39.265Z,4.20
2022-09-05T07:38:52.248Z,4.10
2022-09-05T07:39:52.134Z,4.19
2022-09-05T07:41:02.481Z,3.90
2022-09-05T07:41:56.047Z,4.10
2022-09-05T07:43:09.758Z,3.81
2022-09-05T07:44:18.731Z,3.55
2022-09-05T07:45:20.885Z,3.86
2022-09-05T07:46:16.998Z,4.02
2022-09-05T07:47:14.965Z,4.15
2022-09-05T07:48:22.374Z,3.68
2022-09-05T07:49:27.195Z,3.49
2022-09-05T07:52:19.119Z,3.77
2022-09-05T07:56:53.978Z,3.69
2022-09-05T07:56:56.044Z,3.77
2022-09-05T07:56:59.388Z,3.52
2022-09-05T07:56:59.807Z,3.64
2022-09-05T07:57:10.465Z,3.84
2022-09-05T07:57:54.539Z,3.45
2022-09-05T07:58:49.726Z,3.59
2022-09-05T07:59:43.113Z,3.62
2022-09-05T08:00:31.058Z,3.85
2022-09-05T08:01:22.755Z,3.61
2022-09-05T08:02:12.757Z,3.54
2022-09-05T08:03:09.742Z,3.77
2022-09-05T08:03:57.328Z,3.49
2022-09-05T08:04:50.683Z,3.40
2022-09-05T08:05:54.152Z,3.65
2022-09-05T08:07:46.511Z,3.61
2022-09-05T08:08:00.333Z,3.66
2022-09-05T08:10:05.291Z,3.53
2022-09-05T08:10:21.844Z,3.56
2022-09-05T08:11:26.257Z,3.22
2022-09-05T08:13:23.992Z,3.42
2022-09-05T08:14:43.433Z,3.33
2022-09-05T08:16:00.756Z,3.19
2022-09-05T08:16:39.799Z,3.43
2022-09-05T08:17:30.204Z,3.40
2022-09-05T08:18:26.302Z,3.29
2022-09-05T08:19:32.723Z,3.60
2022-09-05T08:20:42.218Z,3.34
2022-09-05T08:21:48.713Z,3.31
2022-09-05T08:22:52.556Z,3.02
2022-09-05T08:23:56.913Z,3.41
2022-09-05T08:25:14.961Z,3.08
2022-09-05T08:26:07.125Z,3.29
2022-09-05T08:27:20.879Z,3.34
2022-09-05T08:28:25.652Z,3.25
2022-09-05T08:29:33.761Z,3.14
2022-09-05T08:30:26.475Z,3.05
2022-09-05T08:31:22.379Z,3.21
2022-09-05T08:32:46.244Z,3.34
2022-09-05T08:33:37.977Z,2.79
2022-09-05T08:34:50.586Z,3.13
2022-09-05T08:36:04.744Z,3.05
2022-09-05T08:36:57.844Z,2.76
2022-09-05T08:37:48.068Z,3.40
2022-09-05T08:38:40.840Z,3.28
2022-09-05T08:39:32.153Z,3.07
2022-09-05T08:40:41.611Z,3.30
2022-09-05T08:41:51.907Z,3.24
2022-09-05T08:46:35.124Z,2.79
2022-09-05T08:46:37.465Z,2.97
2022-09-05T08:46:42.801Z,3.20
2022-09-05T08:47:28.633Z,2.89
2022-09-05T08:50:08.019Z,2.79
2022-09-05T08:50:20.971Z,2.86
2022-09-05T08:51:28.449Z,3.24
2022-09-05T08:52:33.524Z,3.19
2022-09-05T08:53:57.644Z,2.97
2022-09-05T08:55:16.003Z,2.96
2022-09-05T08:56:17.036Z,3.24
2022-09-05T08:57:39.477Z,3.10
2022-09-05T08:58:40.677Z,2.80
2022-09-05T08:59:33.553Z,2.78
2022-09-05T09:00:24.754Z,2.83
2022-09-05T09:02:45.418Z,2.95
2022-09-05T09:03:12.079Z,2.91
2022-09-05T09:04:52.456Z,2.91
2022-09-05T09:06:14.022Z,2.88
2022-09-05T09:07:51.239Z,2.71
2022-09-05T09:09:06.794Z,3.04
2022-09-05T09:10:02.078Z,2.78
2022-09-05T09:10:59.855Z,2.62
2022-09-05T09:12:13.344Z,2.92
2022-09-05T09:13:07.191Z,3.82
2022-09-05T09:14:30.650Z,2.99
2022-09-05T09:15:37.698Z,2.72
2022-09-05T09:16:54.425Z,2.88
2022-09-05T09:17:51.962Z,2.66
2022-09-05T09:18:57.605Z,2.72
2022-09-05T09:20:12.962Z,2.58
2022-09-05T09:21:22.723Z,2.83
2022-09-05T09:22:47.103Z,2.74
2022-09-05T09:23:49.907Z,2.76
2022-09-05T09:24:47.267Z,2.81
2022-09-05T09:26:18.458Z,2.36
2022-09-05T09:28:22.599Z,2.50
2022-09-05T09:28:51.715Z,2.69
2022-09-05T09:29:42.869Z,2.88
2022-09-05T09:30:34.457Z,2.87
2022-09-05T09:31:39.543Z,2.33
2022-09-05T09:32:26.555Z,2.74
2022-09-05T09:33:27.238Z,2.65
2022-09-05T09:34:26.027Z,2.26
2022-09-05T09:35:21.515Z,2.51
2022-09-05T09:36:38.711Z,2.20
2022-09-05T09:37:50.678Z,2.65
2022-09-05T09:38:53.625Z,2.40
2022-09-05T09:40:23.647Z,2.33
2022-09-05T09:41:47.348Z,2.60
2022-09-05T09:42:54.030Z,2.81
2022-09-05T09:44:26.711Z,2.45
2022-09-05T09:45:33.438Z,2.48
2022-09-05T09:46:39.420Z,2.66
2022-09-05T09:47:46.149Z,2.84
2022-09-05T09:49:23.442Z,2.33
2022-09-05T09:50:22.055Z,2.81
2022-09-05T09:51:26.926Z,2.61
2022-09-05T09:52:38.195Z,2.38
2022-09-05T09:53:43.351Z,2.43
2022-09-05T09:55:21.449Z,2.44
2022-09-05T09:56:38.872Z,2.20
2022-09-05T09:57:45.668Z,2.48
2022-09-05T09:58:46.341Z,2.53
2022-09-05T09:59:55.335Z,2.49
2022-09-05T10:00:51.211Z,2.62
2022-09-05T10:02:03.658Z,2.71
2022-09-05T10:09:23.147Z,2.83
2022-09-05T10:10:35.506Z,2.62
2022-09-05T10:10:38.186Z,2.37
2022-09-05T10:10:53.555Z,2.33
2022-09-05T10:10:57.642Z,2.55
2022-09-05T10:11:06.372Z,2.68
2022-09-05T10:12:01.027Z,2.53
2022-09-05T10:13:20.969Z,2.95
2022-09-05T10:14:47.721Z,2.63
2022-09-05T10:16:12.718Z,2.78
2022-09-05T10:17:41.706Z,2.57
2022-09-05T10:18:50.211Z,2.57
2022-09-05T10:20:14.058Z,2.51
2022-09-05T10:21:28.332Z,2.38
2022-09-05T10:22:35.215Z,2.52
2022-09-05T10:23:38.569Z,2.61
2022-09-05T10:24:52.527Z,2.61
2022-09-05T10:26:01.886Z,2.80
2022-09-05T10:27:13.524Z,2.81
2022-09-05T10:28:20.283Z,2.86
2022-09-05T10:29:36.978Z,2.74
2022-09-05T10:32:27.568Z,2.61
2022-09-05T10:34:35.735Z,2.57
2022-09-05T10:35:09.032Z,2.66
2022-09-05T10:35:16.922Z,2.69
2022-09-05T10:36:22.000Z,2.67
2022-09-05T10:37:13.120Z,2.89
2022-09-05T10:38:11.389Z,2.54
2022-09-05T10:39:18.295Z,2.41
2022-09-05T10:40:11.697Z,2.58
2022-09-05T10:41:22.432Z,2.56
2022-09-05T10:42:58.206Z,2.36
2022-09-05T10:44:02.059Z,2.64
2022-09-05T10:44:57.407Z,2.62
2022-09-05T10:45:55.920Z,2.55
2022-09-05T10:46:51.642Z,2.79
2022-09-05T10:47:48.224Z,2.73
2022-09-05T10:48:57.379Z,2.53
2022-09-05T10:49:50.458Z,2.64
2022-09-05T10:50:43.951Z,2.44
2022-09-05T10:51:43.084Z,2.38
2022-09-05T10:52:59.183Z,2.52
2022-09-05T10:54:07.773Z,2.53
2022-09-05T10:55:21.861Z,2.76
2022-09-05T10:56:14.265Z,2.51
2022-09-05T10:57:21.916Z,2.52
2022-09-05T10:58:30.397Z,2.57
2022-09-05T11:02:20.363Z,2.60
2022-09-05T11:02:27.977Z,2.58
2022-09-05T11:02:58.540Z,2.57
2022-09-05T11:03:52.212Z,2.50
2022-09-05T11:05:17.265Z,2.38
2022-09-05T11:06:14.663Z,2.39
2022-09-05T11:07:27.886Z,2.35
2022-09-05T11:08:42.373Z,2.26
2022-09-05T11:09:40.909Z,2.71
2022-09-05T11:11:05.734Z,2.39
2022-09-05T11:12:10.717Z,2.45
2022-09-05T11:13:28.417Z,2.61
2022-09-05T11:14:34.773Z,2.48
2022-09-05T11:15:45.823Z,2.75
2022-09-05T11:16:58.750Z,2.75
2022-09-05T11:17:56.549Z,2.69
2022-09-05T11:19:20.433Z,2.26
2022-09-05T11:20:35.425Z,2.21
2022-09-05T11:21:31.517Z,2.36
2022-09-05T11:22:24.459Z,2.66
2022-09-05T11:23:19.942Z,2.72
2022-09-05T11:24:30.345Z,2.77
2022-09-05T11:25:36.925Z,2.56
2022-09-05T11:27:08.483Z,2.35
2022-09-05T11:28:12.785Z,2.31
2022-09-05T11:29:18.015Z,2.34
2022-09-05T11:30:30.523Z,2.74
2022-09-05T11:31:28.811Z,2.74
2022-09-05T11:39:45.990Z,2.34
2022-09-05T11:39:47.922Z,2.74
2022-09-05T11:39:55.487Z,2.78
2022-09-05T11:39:58.224Z,2.52
2022-09-05T11:40:06.271Z,2.54
2022-09-05T11:40:31.385Z,2.34
2022-09-05T11:41:22.495Z,2.49
2022-09-05T11:42:41.717Z,2.47
2022-09-05T11:44:25.007Z,2.26
2022-09-05T11:45:27.203Z,2.26
2022-09-05T11:46:32.039Z,2.41
2022-09-05T11:48:02.979Z,2.26
2022-09-05T11:49:14.379Z,2.14
2022-09-05T11:50:01.897Z,2.23
2022-09-05T11:51:34.145Z,2.00
2022-09-05T11:52:51.346Z,2.99
2022-09-05T11:53:57.290Z,2.24
2022-09-05T11:55:05.302Z,2.33
2022-09-05T11:56:03.215Z,2.46
2022-09-05T11:57:06.485Z,2.29
2022-09-05T11:58:45.183Z,2.36
2022-09-05T11:59:49.448Z,2.39
2022-09-05T12:01:41.621Z,2.25
2022-09-05T12:03:05.894Z,2.38
2022-09-05T12:04:17.054Z,2.21
2022-09-05T12:06:00.962Z,2.46
2022-09-05T12:07:07.349Z,2.38
2022-09-05T12:08:35.726Z,2.56
2022-09-05T12:09:37.668Z,2.41
2022-09-05T12:10:47.595Z,2.38
2022-09-05T12:11:43.201Z,2.25
2022-09-05T12:12:41.915Z,2.38
2022-09-05T12:13:38.348Z,2.39
2022-09-05T12:14:54.839Z,2.29
2022-09-05T12:15:53.407Z,2.53
2022-09-05T12:17:10.029Z,2.15
2022-09-05T12:18:18.849Z,2.35
2022-09-05T12:19:31.294Z,2.31
2022-09-05T12:20:43.345Z,2.10
2022-09-05T12:22:16.234Z,2.25
2022-09-05T12:24:13.644Z,2.22
2022-09-05T12:27:36.493Z,2.00
2022-09-05T12:27:38.656Z,2.33
2022-09-05T12:29:27.109Z,2.18
2022-09-05T12:29:32.630Z,2.17
2022-09-05T12:30:53.048Z,2.30
2022-09-05T12:32:41.685Z,1.97
2022-09-05T12:36:02.691Z,2.47
2022-09-05T12:36:07.741Z,2.14
2022-09-05T12:40:36.862Z,2.14
2022-09-05T12:40:44.634Z,2.25
2022-09-05T12:40:53.734Z,1.99
2022-09-05T12:41:32.380Z,2.20
2022-09-05T12:42:10.154Z,2.00
2022-09-05T12:42:49.792Z,2.11
2022-09-05T12:44:38.930Z,2.01
2022-09-05T12:45:09.869Z,2.36
2022-09-05T12:46:23.714Z,2.12
2022-09-05T12:47:20.424Z,2.24
2022-09-05T12:48:38.661Z,1.99
2022-09-05T12:49:36.542Z,2.34
2022-09-05T12:50:49.097Z,1.97
2022-09-05T12:51:54.141Z,2.09
2022-09-05T12:52:46.185Z,2.19
2022-09-05T12:53:49.816Z,2.04
2022-09-05T12:54:55.864Z,1.87
2022-09-05T12:56:20.513Z,2.01
2022-09-05T13:01:36.575Z,2.07
2022-09-05T13:02:56.002Z,2.05
2022-09-05T13:03:03.207Z,2.03
2022-09-05T13:03:03.808Z,1.95
2022-09-05T13:03:06.072Z,1.94
2022-09-05T13:03:33.576Z,1.88
2022-09-05T13:04:30.268Z,1.86
2022-09-05T13:05:26.949Z,2.11
2022-09-05T13:06:25.489Z,2.24
2022-09-05T13:07:21.898Z,2.01
2022-09-05T13:08:13.239Z,1.99
2022-09-05T13:09:10.571Z,1.87
2022-09-05T13:10:41.009Z,1.98
2022-09-05T13:14:47.170Z,1.92
2022-09-05T13:14:59.829Z,1.86
2022-09-05T13:15:07.894Z,1.62
2022-09-05T13:15:18.634Z,1.79
2022-09-05T13:16:10.778Z,2.21
2022-09-05T13:17:14.092Z,2.31
2022-09-05T13:18:17.267Z,2.16
2022-09-05T13:19:08.636Z,2.04
2022-09-05T13:19:56.249Z,2.23
2022-09-05T13:20:51.495Z,2.18
2022-09-05T13:21:45.415Z,1.86
2022-09-05T13:22:35.237Z,2.02
2022-09-05T13:23:50.539Z,2.15
2022-09-05T13:24:42.727Z,1.97
2022-09-05T13:25:31.728Z,1.85
2022-09-05T13:26:43.110Z,2.09
2022-09-05T13:27:39.528Z,1.78
2022-09-05T13:28:41.554Z,2.04
2022-09-05T13:30:51.827Z,2.20
2022-09-05T13:37:53.800Z,2.21
2022-09-05T13:37:55.595Z,1.96
2022-09-05T13:38:02.195Z,1.89
2022-09-05T13:38:05.800Z,2.11
2022-09-05T13:38:13.697Z,1.93
2022-09-05T13:38:19.875Z,2.32
2022-09-05T13:39:04.537Z,2.05
2022-09-05T13:40:11.283Z,1.99
2022-09-05T13:41:01.116Z,2.03
2022-09-05T13:41:59.293Z,1.94
2022-09-05T13:43:21.819Z,2.08
2022-09-05T13:44:25.219Z,2.01
2022-09-05T13:45:18.899Z,2.10
2022-09-05T13:46:16.984Z,2.06
2022-09-05T13:47:29.838Z,1.79
2022-09-05T13:48:27.558Z,1.66
2022-09-05T13:49:33.047Z,1.80
2022-09-05T13:50:35.808Z,1.72
2022-09-05T13:51:46.402Z,2.03
2022-09-05T13:52:46.936Z,1.89
2022-09-05T13:53:40.262Z,1.91
2022-09-05T13:54:51.033Z,1.85
2022-09-05T13:55:44.786Z,2.27
2022-09-05T13:56:33.010Z,2.31
2022-09-05T13:57:37.083Z,2.21
2022-09-05T13:58:57.356Z,2.47
2022-09-05T14:00:28.249Z,2.13
2022-09-05T14:01:35.568Z,2.06
2022-09-05T14:06:03.595Z,1.89
2022-09-05T14:07:46.586Z,2.10
2022-09-05T14:09:35.101Z,1.97
2022-09-05T14:10:39.235Z,1.84
2022-09-05T14:11:31.991Z,1.83
2022-09-05T14:12:30.538Z,1.95
2022-09-05T14:13:29.347Z,1.89
2022-09-05T14:16:01.852Z,1.90
2022-09-05T14:17:50.431Z,1.99
2022-09-05T14:18:34.006Z,2.03
2022-09-05T14:19:43.493Z,2.17
2022-09-05T14:21:08.707Z,1.99
2022-09-05T14:22:04.914Z,2.09
2022-09-05T14:23:10.087Z,1.99
2022-09-05T14:24:14.586Z,1.93
2022-09-05T14:25:10.165Z,2.13
2022-09-05T14:26:04.226Z,1.98
2022-09-05T14:27:11.820Z,2.08
2022-09-05T14:28:03.908Z,2.03
2022-09-05T14:29:14.185Z,1.82
2022-09-05T14:30:54.074Z,2.05
2022-09-05T14:33:48.882Z,2.04
2022-09-05T14:37:41.233Z,1.90
2022-09-05T14:37:44.074Z,1.95
2022-09-05T14:37:52.816Z,1.94
2022-09-05T14:37:54.705Z,1.98
2022-09-05T14:38:14.486Z,2.08
2022-09-05T14:39:14.679Z,2.23
2022-09-05T14:40:38.712Z,2.04
2022-09-05T14:41:39.985Z,2.04
2022-09-05T14:42:51.005Z,2.02
2022-09-05T14:44:06.268Z,1.86
2022-09-05T14:45:22.761Z,1.90
2022-09-05T14:46:28.271Z,2.08
2022-09-05T14:47:35.486Z,1.99
2022-09-05T14:48:39.401Z,2.00
2022-09-05T14:50:04.825Z,2.06
2022-09-05T14:51:11.041Z,1.88
2022-09-05T14:52:17.578Z,2.18
2022-09-05T14:55:39.650Z,1.85
2022-09-05T14:59:56.757Z,1.86
2022-09-05T15:02:42.157Z,2.13
2022-09-05T15:02:45.984Z,2.28
2022-09-05T15:02:52.713Z,1.84
2022-09-05T15:02:56.514Z,2.13
2022-09-05T15:03:01.911Z,2.09
2022-09-05T15:05:27.976Z,2.13
2022-09-05T15:06:19.937Z,2.08
2022-09-05T15:07:19.396Z,2.16
2022-09-05T15:09:27.282Z,1.90
2022-09-05T15:12:14.876Z,2.36
2022-09-05T15:12:16.709Z,2.44
2022-09-05T15:12:24.050Z,1.98
2022-09-05T15:13:08.783Z,1.88
2022-09-05T15:14:03.266Z,2.00
2022-09-05T15:15:00.413Z,1.98
2022-09-05T15:15:59.138Z,1.94
2022-09-05T15:17:04.959Z,1.91
2022-09-05T15:17:58.497Z,1.92
2022-09-05T15:18:48.232Z,2.05
2022-09-05T15:20:06.561Z,1.89
2022-09-05T15:21:33.085Z,1.94
2022-09-05T15:22:27.784Z,2.11
2022-09-05T15:23:18.261Z,1.98
2022-09-05T15:24:25.194Z,2.05
2022-09-05T15:25:21.970Z,1.88
2022-09-05T15:26:25.841Z,1.76
2022-09-05T15:27:16.622Z,1.84
2022-09-05T15:28:08.354Z,1.88
2022-09-05T15:29:13.594Z,2.19
2022-09-05T15:30:02.335Z,1.81
2022-09-05T15:31:00.887Z,2.06
2022-09-05T15:31:47.400Z,2.01
2022-09-05T15:32:50.165Z,2.09
2022-09-05T15:33:40.682Z,1.86
2022-09-05T15:34:32.947Z,1.97
2022-09-05T15:35:42.370Z,2.08
2022-09-05T15:36:35.319Z,1.86
2022-09-05T15:37:42.796Z,1.89
2022-09-05T15:38:38.771Z,1.92
2022-09-05T15:39:39.089Z,1.97
2022-09-05T15:40:26.391Z,2.09
2022-09-05T15:41:22.225Z,1.86
2022-09-05T15:42:21.250Z,1.85
2022-09-05T15:43:16.566Z,1.92